sensor_id;sensor_type;location;lat;lon;timestamp;P1;durP1;ratioP1;P2;durP2;ratioP2
315;SDS011;14128;48.686;9.738;2022-12-07T00:00:13;8.20;;;7.10;;
315;SDS011;14128;48.686;9.738;2022-12-07T00:02:41;8.20;;;7.80;;
315;SDS011;14128;48.686;9.738;2022-12-07T00:05:07;9.50;;;7.80;;
315;SDS011;14128;48.686;9.738;2022-12-07T00:07:35;8.97;;;8.57;;
315;SDS011;14128;48.686;9.738;2022-12-07T00:10:02;9.50;;;8.83;;
315;SDS011;14128;48.686;9.738;2022-12-07T00:12:30;11.30;;;8.33;;
315;SDS011;14128;48.686;9.738;2022-12-07T00:14:57;9.00;;;8.47;;
315;SDS011;14128;48.686;9.738;2022-12-07T00:17:24;8.47;;;7.07;;
315;SDS011;14128;48.686;9.738;2022-12-07T00:19:50;8.10;;;7.70;;
315;SDS011;14128;48.686;9.738;2022-12-07T00:22:17;10.17;;;8.07;;
315;SDS011;14128;48.686;9.738;2022-12-07T00:24:45;8.97;;;8.23;;
315;SDS011;14128;48.686;9.738;2022-12-07T00:27:12;8.90;;;7.53;;
315;SDS011;14128;48.686;9.738;2022-12-07T00:29:39;16.10;;;8.50;;
315;SDS011;14128;48.686;9.738;2022-12-07T00:32:06;8.67;;;7.70;;
315;SDS011;14128;48.686;9.738;2022-12-07T00:34:32;9.83;;;8.60;;
315;SDS011;14128;48.686;9.738;2022-12-07T00:36:59;8.80;;;7.70;;
315;SDS011;14128;48.686;9.738;2022-12-07T00:39:26;9.90;;;8.57;;
315;SDS011;14128;48.686;9.738;2022-12-07T00:41:54;14.30;;;9.50;;
315;SDS011;14128;48.686;9.738;2022-12-07T00:44:21;9.90;;;8.10;;
315;SDS011;14128;48.686;9.738;2022-12-07T00:46:48;9.57;;;7.73;;
315;SDS011;14128;48.686;9.738;2022-12-07T00:49:15;9.73;;;8.67;;
315;SDS011;14128;48.686;9.738;2022-12-07T00:51:41;12.70;;;8.93;;
315;SDS011;14128;48.686;9.738;2022-12-07T00:54:08;10.03;;;9.53;;
315;SDS011;14128;48.686;9.738;2022-12-07T00:56:35;9.53;;;8.80;;
315;SDS011;14128;48.686;9.738;2022-12-07T00:59:03;9.53;;;9.03;;
315;SDS011;14128;48.686;9.738;2022-12-07T01:01:31;8.77;;;7.87;;
315;SDS011;14128;48.686;9.738;2022-12-07T01:04:00;9.40;;;7.60;;
315;SDS011;14128;48.686;9.738;2022-12-07T01:06:27;9.43;;;8.90;;
315;SDS011;14128;48.686;9.738;2022-12-07T01:08:55;10.63;;;8.63;;
315;SDS011;14128;48.686;9.738;2022-12-07T01:11:22;10.60;;;9.27;;
315;SDS011;14128;48.686;9.738;2022-12-07T01:13:50;9.17;;;8.67;;
315;SDS011;14128;48.686;9.738;2022-12-07T01:16:20;10.03;;;8.90;;
315;SDS011;14128;48.686;9.738;2022-12-07T01:18:49;8.70;;;8.20;;
315;SDS011;14128;48.686;9.738;2022-12-07T01:21:19;10.20;;;8.57;;
315;SDS011;14128;48.686;9.738;2022-12-07T01:23:47;10.83;;;9.23;;
315;SDS011;14128;48.686;9.738;2022-12-07T01:26:15;10.63;;;9.40;;
315;SDS011;14128;48.686;9.738;2022-12-07T01:28:43;11.90;;;8.67;;
315;SDS011;14128;48.686;9.738;2022-12-07T01:31:11;10.60;;;8.93;;
315;SDS011;14128;48.686;9.738;2022-12-07T01:33:41;11.10;;;9.03;;
315;SDS011;14128;48.686;9.738;2022-12-07T01:36:12;10.80;;;9.00;;
315;SDS011;14128;48.686;9.738;2022-12-07T01:38:41;9.97;;;9.57;;
315;SDS011;14128;48.686;9.738;2022-12-07T01:41:09;10.00;;;9.33;;
315;SDS011;14128;48.686;9.738;2022-12-07T01:43:36;12.37;;;9.80;;
315;SDS011;14128;48.686;9.738;2022-12-07T01:46:29;11.93;;;9.43;;
315;SDS011;14128;48.686;9.738;2022-12-07T01:48:56;12.50;;;9.97;;
315;SDS011;14128;48.686;9.738;2022-12-07T01:51:23;11.53;;;9.87;;
315;SDS011;14128;48.686;9.738;2022-12-07T01:53:49;11.47;;;10.13;;
315;SDS011;14128;48.686;9.738;2022-12-07T01:56:17;15.47;;;9.93;;
315;SDS011;14128;48.686;9.738;2022-12-07T01:58:46;11.03;;;10.00;;
315;SDS011;14128;48.686;9.738;2022-12-07T02:01:14;10.67;;;10.00;;
315;SDS011;14128;48.686;9.738;2022-12-07T02:03:43;10.50;;;9.97;;
315;SDS011;14128;48.686;9.738;2022-12-07T02:06:12;11.93;;;10.53;;
315;SDS011;14128;48.686;9.738;2022-12-07T02:08:42;11.77;;;11.03;;
315;SDS011;14128;48.686;9.738;2022-12-07T02:11:09;17.40;;;11.07;;
315;SDS011;14128;48.686;9.738;2022-12-07T02:13:37;16.10;;;11.30;;
315;SDS011;14128;48.686;9.738;2022-12-07T02:16:10;14.00;;;11.37;;
315;SDS011;14128;48.686;9.738;2022-12-07T02:18:51;16.27;;;11.40;;
315;SDS011;14128;48.686;9.738;2022-12-07T02:21:30;15.00;;;11.33;;
315;SDS011;14128;48.686;9.738;2022-12-07T02:24:18;16.30;;;12.73;;
315;SDS011;14128;48.686;9.738;2022-12-07T02:27:20;13.80;;;12.33;;
315;SDS011;14128;48.686;9.738;2022-12-07T02:30:00;14.37;;;12.03;;
315;SDS011;14128;48.686;9.738;2022-12-07T02:32:31;16.90;;;11.83;;
315;SDS011;14128;48.686;9.738;2022-12-07T02:35:09;15.90;;;12.67;;
315;SDS011;14128;48.686;9.738;2022-12-07T02:37:39;13.83;;;11.70;;
315;SDS011;14128;48.686;9.738;2022-12-07T02:40:10;16.90;;;13.43;;
315;SDS011;14128;48.686;9.738;2022-12-07T02:42:45;16.73;;;12.70;;
315;SDS011;14128;48.686;9.738;2022-12-07T02:45:17;15.10;;;12.30;;
315;SDS011;14128;48.686;9.738;2022-12-07T02:47:47;17.53;;;13.57;;
315;SDS011;14128;48.686;9.738;2022-12-07T02:50:17;20.70;;;13.37;;
315;SDS011;14128;48.686;9.738;2022-12-07T02:52:46;13.80;;;11.87;;
315;SDS011;14128;48.686;9.738;2022-12-07T02:55:12;18.60;;;13.60;;
315;SDS011;14128;48.686;9.738;2022-12-07T02:57:55;21.57;;;13.00;;
315;SDS011;14128;48.686;9.738;2022-12-07T03:00:43;19.50;;;13.80;;
315;SDS011;14128;48.686;9.738;2022-12-07T03:03:15;19.53;;;15.10;;
315;SDS011;14128;48.686;9.738;2022-12-07T03:05:46;17.43;;;13.63;;
315;SDS011;14128;48.686;9.738;2022-12-07T03:08:35;16.50;;;13.10;;
315;SDS011;14128;48.686;9.738;2022-12-07T03:11:07;20.20;;;15.43;;
315;SDS011;14128;48.686;9.738;2022-12-07T03:13:37;18.27;;;11.90;;
315;SDS011;14128;48.686;9.738;2022-12-07T03:16:14;19.53;;;13.50;;
315;SDS011;14128;48.686;9.738;2022-12-07T03:18:43;18.07;;;14.93;;
315;SDS011;14128;48.686;9.738;2022-12-07T03:21:14;14.40;;;10.80;;
315;SDS011;14128;48.686;9.738;2022-12-07T03:23:44;19.07;;;14.73;;
315;SDS011;14128;48.686;9.738;2022-12-07T03:26:15;21.20;;;14.70;;
315;SDS011;14128;48.686;9.738;2022-12-07T03:28:46;20.90;;;13.80;;
315;SDS011;14128;48.686;9.738;2022-12-07T03:31:18;19.13;;;14.37;;
315;SDS011;14128;48.686;9.738;2022-12-07T03:33:49;16.80;;;12.73;;
315;SDS011;14128;48.686;9.738;2022-12-07T03:36:24;14.33;;;11.30;;
315;SDS011;14128;48.686;9.738;2022-12-07T03:38:55;18.43;;;12.83;;
315;SDS011;14128;48.686;9.738;2022-12-07T03:41:27;16.63;;;12.93;;
315;SDS011;14128;48.686;9.738;2022-12-07T03:43:56;22.50;;;17.33;;
315;SDS011;14128;48.686;9.738;2022-12-07T03:46:27;21.70;;;16.00;;
315;SDS011;14128;48.686;9.738;2022-12-07T03:49:05;16.83;;;13.10;;
315;SDS011;14128;48.686;9.738;2022-12-07T03:51:38;15.00;;;11.10;;
315;SDS011;14128;48.686;9.738;2022-12-07T03:54:10;17.60;;;13.00;;
315;SDS011;14128;48.686;9.738;2022-12-07T03:56:40;20.33;;;13.67;;
315;SDS011;14128;48.686;9.738;2022-12-07T03:59:09;17.70;;;12.80;;
315;SDS011;14128;48.686;9.738;2022-12-07T04:01:39;19.07;;;13.20;;
315;SDS011;14128;48.686;9.738;2022-12-07T04:04:08;19.13;;;13.53;;
315;SDS011;14128;48.686;9.738;2022-12-07T04:06:35;20.77;;;16.07;;
315;SDS011;14128;48.686;9.738;2022-12-07T04:09:02;18.70;;;13.47;;
315;SDS011;14128;48.686;9.738;2022-12-07T04:11:29;18.67;;;12.97;;
315;SDS011;14128;48.686;9.738;2022-12-07T04:13:55;22.40;;;14.87;;
315;SDS011;14128;48.686;9.738;2022-12-07T04:16:41;19.70;;;13.67;;
315;SDS011;14128;48.686;9.738;2022-12-07T04:19:08;19.93;;;12.80;;
315;SDS011;14128;48.686;9.738;2022-12-07T04:21:34;15.10;;;11.97;;
315;SDS011;14128;48.686;9.738;2022-12-07T04:24:01;19.20;;;12.77;;
315;SDS011;14128;48.686;9.738;2022-12-07T04:26:28;18.80;;;13.10;;
315;SDS011;14128;48.686;9.738;2022-12-07T04:28:55;19.53;;;14.67;;
315;SDS011;14128;48.686;9.738;2022-12-07T04:31:22;20.50;;;14.43;;
315;SDS011;14128;48.686;9.738;2022-12-07T04:33:51;17.17;;;13.17;;
315;SDS011;14128;48.686;9.738;2022-12-07T04:36:17;21.03;;;13.20;;
315;SDS011;14128;48.686;9.738;2022-12-07T04:38:45;17.50;;;13.90;;
315;SDS011;14128;48.686;9.738;2022-12-07T04:41:12;19.53;;;14.70;;
315;SDS011;14128;48.686;9.738;2022-12-07T04:43:39;18.87;;;13.90;;
315;SDS011;14128;48.686;9.738;2022-12-07T04:46:06;20.87;;;13.67;;
315;SDS011;14128;48.686;9.738;2022-12-07T04:48:33;22.47;;;15.37;;
315;SDS011;14128;48.686;9.738;2022-12-07T04:51:01;21.53;;;15.27;;
315;SDS011;14128;48.686;9.738;2022-12-07T04:53:29;19.87;;;14.97;;
315;SDS011;14128;48.686;9.738;2022-12-07T04:55:56;19.73;;;14.03;;
315;SDS011;14128;48.686;9.738;2022-12-07T04:58:23;23.10;;;15.27;;
315;SDS011;14128;48.686;9.738;2022-12-07T05:00:50;22.73;;;15.37;;
315;SDS011;14128;48.686;9.738;2022-12-07T05:03:20;19.77;;;14.43;;
315;SDS011;14128;48.686;9.738;2022-12-07T05:05:47;21.73;;;16.60;;
315;SDS011;14128;48.686;9.738;2022-12-07T05:08:15;19.83;;;14.73;;
315;SDS011;14128;48.686;9.738;2022-12-07T05:10:42;26.40;;;14.90;;
315;SDS011;14128;48.686;9.738;2022-12-07T05:13:09;19.80;;;14.47;;
315;SDS011;14128;48.686;9.738;2022-12-07T05:15:35;20.43;;;13.83;;
315;SDS011;14128;48.686;9.738;2022-12-07T05:18:02;17.67;;;13.27;;
315;SDS011;14128;48.686;9.738;2022-12-07T05:20:29;16.13;;;13.10;;
315;SDS011;14128;48.686;9.738;2022-12-07T05:22:57;19.23;;;14.27;;
315;SDS011;14128;48.686;9.738;2022-12-07T05:25:25;21.63;;;14.80;;
315;SDS011;14128;48.686;9.738;2022-12-07T05:27:53;21.63;;;13.53;;
315;SDS011;14128;48.686;9.738;2022-12-07T05:30:21;27.00;;;16.90;;
315;SDS011;14128;48.686;9.738;2022-12-07T05:32:48;28.73;;;15.93;;
315;SDS011;14128;48.686;9.738;2022-12-07T05:35:15;20.63;;;14.97;;
315;SDS011;14128;48.686;9.738;2022-12-07T05:37:42;23.97;;;15.17;;
315;SDS011;14128;48.686;9.738;2022-12-07T05:40:09;24.30;;;16.70;;
315;SDS011;14128;48.686;9.738;2022-12-07T05:42:39;25.00;;;15.97;;
315;SDS011;14128;48.686;9.738;2022-12-07T05:45:05;23.67;;;16.57;;
315;SDS011;14128;48.686;9.738;2022-12-07T05:47:33;24.90;;;17.70;;
315;SDS011;14128;48.686;9.738;2022-12-07T05:50:00;20.90;;;14.40;;
315;SDS011;14128;48.686;9.738;2022-12-07T05:52:27;27.87;;;17.00;;
315;SDS011;14128;48.686;9.738;2022-12-07T05:54:54;24.00;;;16.47;;
315;SDS011;14128;48.686;9.738;2022-12-07T05:57:20;23.30;;;15.77;;
315;SDS011;14128;48.686;9.738;2022-12-07T05:59:49;23.67;;;16.70;;
315;SDS011;14128;48.686;9.738;2022-12-07T06:02:15;26.10;;;17.00;;
315;SDS011;14128;48.686;9.738;2022-12-07T06:04:43;23.53;;;15.90;;
315;SDS011;14128;48.686;9.738;2022-12-07T06:07:11;27.80;;;16.73;;
315;SDS011;14128;48.686;9.738;2022-12-07T06:09:40;25.50;;;17.40;;
315;SDS011;14128;48.686;9.738;2022-12-07T06:12:08;23.00;;;14.93;;
315;SDS011;14128;48.686;9.738;2022-12-07T06:14:54;28.93;;;18.40;;
315;SDS011;14128;48.686;9.738;2022-12-07T06:17:21;24.17;;;14.73;;
315;SDS011;14128;48.686;9.738;2022-12-07T06:19:48;25.87;;;15.93;;
315;SDS011;14128;48.686;9.738;2022-12-07T06:22:15;21.57;;;15.03;;
315;SDS011;14128;48.686;9.738;2022-12-07T06:24:42;24.23;;;16.60;;
315;SDS011;14128;48.686;9.738;2022-12-07T06:27:09;26.97;;;17.27;;
315;SDS011;14128;48.686;9.738;2022-12-07T06:29:36;25.50;;;15.93;;
315;SDS011;14128;48.686;9.738;2022-12-07T06:32:04;21.57;;;15.63;;
315;SDS011;14128;48.686;9.738;2022-12-07T06:34:31;23.90;;;15.50;;
315;SDS011;14128;48.686;9.738;2022-12-07T06:36:58;21.90;;;15.83;;
315;SDS011;14128;48.686;9.738;2022-12-07T06:39:26;25.77;;;16.30;;
315;SDS011;14128;48.686;9.738;2022-12-07T06:41:53;24.03;;;16.70;;
315;SDS011;14128;48.686;9.738;2022-12-07T06:44:21;23.97;;;15.30;;
315;SDS011;14128;48.686;9.738;2022-12-07T06:46:49;26.70;;;16.83;;
315;SDS011;14128;48.686;9.738;2022-12-07T06:49:17;28.23;;;17.77;;
315;SDS011;14128;48.686;9.738;2022-12-07T06:51:44;24.70;;;16.30;;
315;SDS011;14128;48.686;9.738;2022-12-07T06:54:12;22.03;;;14.53;;
315;SDS011;14128;48.686;9.738;2022-12-07T06:56:40;21.23;;;14.93;;
315;SDS011;14128;48.686;9.738;2022-12-07T06:59:07;25.47;;;16.87;;
315;SDS011;14128;48.686;9.738;2022-12-07T07:01:34;20.87;;;16.03;;
315;SDS011;14128;48.686;9.738;2022-12-07T07:04:02;24.27;;;17.00;;
315;SDS011;14128;48.686;9.738;2022-12-07T07:06:30;21.47;;;15.07;;
315;SDS011;14128;48.686;9.738;2022-12-07T07:08:57;23.30;;;13.87;;
315;SDS011;14128;48.686;9.738;2022-12-07T07:11:24;22.13;;;15.33;;
315;SDS011;14128;48.686;9.738;2022-12-07T07:13:50;22.93;;;14.90;;
315;SDS011;14128;48.686;9.738;2022-12-07T07:16:18;22.00;;;14.33;;
315;SDS011;14128;48.686;9.738;2022-12-07T07:18:45;26.00;;;15.90;;
315;SDS011;14128;48.686;9.738;2022-12-07T07:21:12;27.17;;;17.67;;
315;SDS011;14128;48.686;9.738;2022-12-07T07:23:40;29.13;;;19.93;;
315;SDS011;14128;48.686;9.738;2022-12-07T07:26:07;21.47;;;17.63;;
315;SDS011;14128;48.686;9.738;2022-12-07T07:28:34;24.33;;;16.10;;
315;SDS011;14128;48.686;9.738;2022-12-07T07:31:00;28.10;;;17.03;;
315;SDS011;14128;48.686;9.738;2022-12-07T07:33:27;24.17;;;15.67;;
315;SDS011;14128;48.686;9.738;2022-12-07T07:35:54;28.73;;;17.13;;
315;SDS011;14128;48.686;9.738;2022-12-07T07:38:21;30.33;;;18.40;;
315;SDS011;14128;48.686;9.738;2022-12-07T07:40:49;26.80;;;17.97;;
315;SDS011;14128;48.686;9.738;2022-12-07T07:43:16;24.83;;;15.57;;
315;SDS011;14128;48.686;9.738;2022-12-07T07:45:43;22.60;;;14.23;;
315;SDS011;14128;48.686;9.738;2022-12-07T07:48:11;21.00;;;14.23;;
315;SDS011;14128;48.686;9.738;2022-12-07T07:50:38;21.77;;;15.80;;
315;SDS011;14128;48.686;9.738;2022-12-07T07:53:04;24.57;;;15.57;;
315;SDS011;14128;48.686;9.738;2022-12-07T07:55:31;21.10;;;15.07;;
315;SDS011;14128;48.686;9.738;2022-12-07T07:57:59;24.13;;;14.53;;
315;SDS011;14128;48.686;9.738;2022-12-07T08:00:26;32.37;;;18.50;;
315;SDS011;14128;48.686;9.738;2022-12-07T08:02:53;24.53;;;16.03;;
315;SDS011;14128;48.686;9.738;2022-12-07T08:05:20;26.80;;;17.50;;
315;SDS011;14128;48.686;9.738;2022-12-07T08:07:47;29.03;;;15.37;;
315;SDS011;14128;48.686;9.738;2022-12-07T08:10:13;22.67;;;15.30;;
315;SDS011;14128;48.686;9.738;2022-12-07T08:12:41;27.40;;;15.33;;
315;SDS011;14128;48.686;9.738;2022-12-07T08:15:24;23.13;;;14.63;;
315;SDS011;14128;48.686;9.738;2022-12-07T08:17:51;25.10;;;15.43;;
315;SDS011;14128;48.686;9.738;2022-12-07T08:20:18;22.40;;;15.43;;
315;SDS011;14128;48.686;9.738;2022-12-07T08:22:45;33.13;;;16.53;;
315;SDS011;14128;48.686;9.738;2022-12-07T08:25:12;26.17;;;14.93;;
315;SDS011;14128;48.686;9.738;2022-12-07T08:27:39;19.10;;;14.10;;
315;SDS011;14128;48.686;9.738;2022-12-07T08:30:06;25.07;;;14.67;;
315;SDS011;14128;48.686;9.738;2022-12-07T08:32:35;20.63;;;13.90;;
315;SDS011;14128;48.686;9.738;2022-12-07T08:35:01;20.73;;;12.90;;
315;SDS011;14128;48.686;9.738;2022-12-07T08:37:28;19.20;;;12.60;;
315;SDS011;14128;48.686;9.738;2022-12-07T08:39:55;21.10;;;14.13;;
315;SDS011;14128;48.686;9.738;2022-12-07T08:42:22;21.30;;;13.83;;
315;SDS011;14128;48.686;9.738;2022-12-07T08:44:52;17.63;;;13.07;;
315;SDS011;14128;48.686;9.738;2022-12-07T08:47:19;13.60;;;10.70;;
315;SDS011;14128;48.686;9.738;2022-12-07T08:49:47;13.57;;;10.33;;
315;SDS011;14128;48.686;9.738;2022-12-07T08:52:16;12.90;;;10.90;;
315;SDS011;14128;48.686;9.738;2022-12-07T08:54:44;16.10;;;10.87;;
315;SDS011;14128;48.686;9.738;2022-12-07T08:57:11;13.97;;;10.90;;
315;SDS011;14128;48.686;9.738;2022-12-07T08:59:38;12.93;;;10.20;;
315;SDS011;14128;48.686;9.738;2022-12-07T09:02:05;13.10;;;10.93;;
315;SDS011;14128;48.686;9.738;2022-12-07T09:04:32;13.37;;;9.47;;
315;SDS011;14128;48.686;9.738;2022-12-07T09:07:00;12.93;;;11.30;;
315;SDS011;14128;48.686;9.738;2022-12-07T09:09:28;15.60;;;11.37;;
315;SDS011;14128;48.686;9.738;2022-12-07T09:11:54;14.80;;;10.67;;
315;SDS011;14128;48.686;9.738;2022-12-07T09:14:22;17.13;;;12.00;;
315;SDS011;14128;48.686;9.738;2022-12-07T09:16:49;13.67;;;10.60;;
315;SDS011;14128;48.686;9.738;2022-12-07T09:19:15;12.07;;;10.00;;
315;SDS011;14128;48.686;9.738;2022-12-07T09:21:42;12.60;;;10.07;;
315;SDS011;14128;48.686;9.738;2022-12-07T09:24:11;14.60;;;11.10;;
315;SDS011;14128;48.686;9.738;2022-12-07T09:26:38;12.07;;;9.00;;
315;SDS011;14128;48.686;9.738;2022-12-07T09:29:05;17.17;;;10.67;;
315;SDS011;14128;48.686;9.738;2022-12-07T09:31:32;12.43;;;10.80;;
315;SDS011;14128;48.686;9.738;2022-12-07T09:34:01;10.37;;;8.30;;
315;SDS011;14128;48.686;9.738;2022-12-07T09:36:28;14.00;;;8.93;;
315;SDS011;14128;48.686;9.738;2022-12-07T09:38:55;11.10;;;8.77;;
315;SDS011;14128;48.686;9.738;2022-12-07T09:41:24;12.50;;;9.87;;
315;SDS011;14128;48.686;9.738;2022-12-07T09:43:52;12.57;;;8.17;;
315;SDS011;14128;48.686;9.738;2022-12-07T09:46:24;12.40;;;10.17;;
315;SDS011;14128;48.686;9.738;2022-12-07T09:48:51;13.20;;;9.60;;
315;SDS011;14128;48.686;9.738;2022-12-07T09:51:18;11.40;;;7.80;;
315;SDS011;14128;48.686;9.738;2022-12-07T09:53:47;11.13;;;9.03;;
315;SDS011;14128;48.686;9.738;2022-12-07T09:56:16;8.30;;;6.50;;
315;SDS011;14128;48.686;9.738;2022-12-07T09:58:45;12.37;;;8.37;;
315;SDS011;14128;48.686;9.738;2022-12-07T10:01:14;9.57;;;8.13;;
315;SDS011;14128;48.686;9.738;2022-12-07T10:03:44;11.93;;;8.53;;
315;SDS011;14128;48.686;9.738;2022-12-07T10:06:15;8.40;;;7.10;;
315;SDS011;14128;48.686;9.738;2022-12-07T10:08:41;10.00;;;7.13;;
315;SDS011;14128;48.686;9.738;2022-12-07T10:11:09;11.00;;;6.73;;
315;SDS011;14128;48.686;9.738;2022-12-07T10:13:37;9.13;;;7.07;;
315;SDS011;14128;48.686;9.738;2022-12-07T10:16:06;8.73;;;5.83;;
315;SDS011;14128;48.686;9.738;2022-12-07T10:18:53;8.33;;;6.07;;
315;SDS011;14128;48.686;9.738;2022-12-07T10:21:21;9.40;;;6.73;;
315;SDS011;14128;48.686;9.738;2022-12-07T10:23:59;8.90;;;6.93;;
315;SDS011;14128;48.686;9.738;2022-12-07T10:26:30;7.33;;;6.93;;
315;SDS011;14128;48.686;9.738;2022-12-07T10:28:59;10.13;;;6.10;;
315;SDS011;14128;48.686;9.738;2022-12-07T10:31:31;11.00;;;7.10;;
315;SDS011;14128;48.686;9.738;2022-12-07T10:33:59;7.70;;;5.67;;
315;SDS011;14128;48.686;9.738;2022-12-07T10:36:30;7.63;;;6.13;;
315;SDS011;14128;48.686;9.738;2022-12-07T10:39:03;8.10;;;5.97;;
315;SDS011;14128;48.686;9.738;2022-12-07T10:41:42;7.60;;;6.13;;
315;SDS011;14128;48.686;9.738;2022-12-07T10:44:20;6.37;;;5.13;;
315;SDS011;14128;48.686;9.738;2022-12-07T10:46:55;6.90;;;5.10;;
315;SDS011;14128;48.686;9.738;2022-12-07T10:52:42;4.50;;;4.20;;
315;SDS011;14128;48.686;9.738;2022-12-07T10:55:20;6.50;;;5.60;;
315;SDS011;14128;48.686;9.738;2022-12-07T10:57:55;6.97;;;5.13;;
315;SDS011;14128;48.686;9.738;2022-12-07T11:00:45;6.23;;;5.00;;
315;SDS011;14128;48.686;9.738;2022-12-07T11:03:27;5.73;;;5.40;;
315;SDS011;14128;48.686;9.738;2022-12-07T11:06:06;6.27;;;5.20;;
315;SDS011;14128;48.686;9.738;2022-12-07T11:08:44;4.83;;;4.53;;
315;SDS011;14128;48.686;9.738;2022-12-07T11:11:22;6.63;;;5.47;;
315;SDS011;14128;48.686;9.738;2022-12-07T11:13:59;7.80;;;5.67;;
315;SDS011;14128;48.686;9.738;2022-12-07T11:16:40;14.30;;;6.33;;
315;SDS011;14128;48.686;9.738;2022-12-07T11:19:27;9.30;;;4.80;;
315;SDS011;14128;48.686;9.738;2022-12-07T11:22:06;8.77;;;5.03;;
315;SDS011;14128;48.686;9.738;2022-12-07T11:24:40;6.20;;;5.10;;
315;SDS011;14128;48.686;9.738;2022-12-07T11:27:16;7.20;;;5.47;;
315;SDS011;14128;48.686;9.738;2022-12-07T11:29:51;5.97;;;4.70;;
315;SDS011;14128;48.686;9.738;2022-12-07T11:32:34;6.77;;;4.67;;
315;SDS011;14128;48.686;9.738;2022-12-07T11:35:24;6.60;;;4.67;;
315;SDS011;14128;48.686;9.738;2022-12-07T11:38:00;7.60;;;5.00;;
315;SDS011;14128;48.686;9.738;2022-12-07T11:40:34;5.80;;;4.70;;
315;SDS011;14128;48.686;9.738;2022-12-07T11:43:04;9.77;;;6.17;;
315;SDS011;14128;48.686;9.738;2022-12-07T11:45:37;7.17;;;4.73;;
315;SDS011;14128;48.686;9.738;2022-12-07T11:48:10;6.40;;;4.27;;
315;SDS011;14128;48.686;9.738;2022-12-07T11:50:43;9.43;;;5.23;;
315;SDS011;14128;48.686;9.738;2022-12-07T11:53:14;8.30;;;4.80;;
315;SDS011;14128;48.686;9.738;2022-12-07T11:55:47;6.63;;;4.57;;
315;SDS011;14128;48.686;9.738;2022-12-07T11:58:23;8.93;;;6.00;;
315;SDS011;14128;48.686;9.738;2022-12-07T12:01:13;8.00;;;6.60;;
315;SDS011;14128;48.686;9.738;2022-12-07T12:03:46;16.03;;;6.87;;
315;SDS011;14128;48.686;9.738;2022-12-07T12:06:16;9.30;;;7.33;;
315;SDS011;14128;48.686;9.738;2022-12-07T12:08:45;9.70;;;6.80;;
315;SDS011;14128;48.686;9.738;2022-12-07T12:11:19;7.90;;;5.80;;
315;SDS011;14128;48.686;9.738;2022-12-07T12:14:11;8.30;;;5.37;;
315;SDS011;14128;48.686;9.738;2022-12-07T12:17:13;7.37;;;5.30;;
315;SDS011;14128;48.686;9.738;2022-12-07T12:20:00;5.43;;;4.07;;
315;SDS011;14128;48.686;9.738;2022-12-07T12:22:34;6.50;;;6.10;;
315;SDS011;14128;48.686;9.738;2022-12-07T12:25:06;8.53;;;5.27;;
315;SDS011;14128;48.686;9.738;2022-12-07T12:27:41;7.93;;;6.10;;
315;SDS011;14128;48.686;9.738;2022-12-07T12:30:24;8.43;;;6.53;;
315;SDS011;14128;48.686;9.738;2022-12-07T12:33:02;7.27;;;5.23;;
315;SDS011;14128;48.686;9.738;2022-12-07T12:35:33;8.57;;;4.70;;
315;SDS011;14128;48.686;9.738;2022-12-07T12:38:24;8.17;;;6.50;;
315;SDS011;14128;48.686;9.738;2022-12-07T12:40:56;7.70;;;5.47;;
315;SDS011;14128;48.686;9.738;2022-12-07T12:55:14;7.63;;;5.50;;
315;SDS011;14128;48.686;9.738;2022-12-07T12:57:46;10.03;;;5.27;;
315;SDS011;14128;48.686;9.738;2022-12-07T13:00:17;5.37;;;4.83;;
315;SDS011;14128;48.686;9.738;2022-12-07T13:02:49;7.60;;;5.00;;
315;SDS011;14128;48.686;9.738;2022-12-07T13:05:19;6.77;;;5.40;;
315;SDS011;14128;48.686;9.738;2022-12-07T13:07:50;8.50;;;5.40;;
315;SDS011;14128;48.686;9.738;2022-12-07T13:10:33;16.90;;;12.57;;
315;SDS011;14128;48.686;9.738;2022-12-07T13:13:25;7.63;;;6.07;;
315;SDS011;14128;48.686;9.738;2022-12-07T13:18:56;10.10;;;5.27;;
315;SDS011;14128;48.686;9.738;2022-12-07T13:21:41;5.93;;;5.63;;
315;SDS011;14128;48.686;9.738;2022-12-07T13:24:10;8.77;;;4.90;;
315;SDS011;14128;48.686;9.738;2022-12-07T13:26:41;11.13;;;5.17;;
315;SDS011;14128;48.686;9.738;2022-12-07T13:29:11;9.23;;;7.10;;
315;SDS011;14128;48.686;9.738;2022-12-07T13:31:40;11.53;;;7.60;;
315;SDS011;14128;48.686;9.738;2022-12-07T13:36:54;20.23;;;6.37;;
315;SDS011;14128;48.686;9.738;2022-12-07T13:39:22;12.57;;;8.43;;
315;SDS011;14128;48.686;9.738;2022-12-07T13:41:52;15.50;;;6.60;;
315;SDS011;14128;48.686;9.738;2022-12-07T13:44:22;9.30;;;5.93;;
315;SDS011;14128;48.686;9.738;2022-12-07T13:46:51;11.83;;;7.00;;
315;SDS011;14128;48.686;9.738;2022-12-07T13:49:30;8.03;;;6.73;;
315;SDS011;14128;48.686;9.738;2022-12-07T13:54:55;9.57;;;6.37;;
315;SDS011;14128;48.686;9.738;2022-12-07T13:57:25;10.70;;;6.53;;
315;SDS011;14128;48.686;9.738;2022-12-07T13:59:54;14.33;;;6.30;;
315;SDS011;14128;48.686;9.738;2022-12-07T14:02:21;10.70;;;6.53;;
315;SDS011;14128;48.686;9.738;2022-12-07T14:04:51;8.53;;;6.17;;
315;SDS011;14128;48.686;9.738;2022-12-07T14:07:19;11.87;;;6.90;;
315;SDS011;14128;48.686;9.738;2022-12-07T14:09:58;11.47;;;6.90;;
315;SDS011;14128;48.686;9.738;2022-12-07T14:12:28;13.13;;;7.40;;
315;SDS011;14128;48.686;9.738;2022-12-07T14:14:56;10.50;;;7.73;;
315;SDS011;14128;48.686;9.738;2022-12-07T14:17:24;9.33;;;7.60;;
315;SDS011;14128;48.686;9.738;2022-12-07T14:19:52;12.80;;;9.50;;
315;SDS011;14128;48.686;9.738;2022-12-07T14:22:22;11.03;;;7.47;;
315;SDS011;14128;48.686;9.738;2022-12-07T14:25:00;11.53;;;6.80;;
315;SDS011;14128;48.686;9.738;2022-12-07T14:27:47;10.43;;;8.60;;
315;SDS011;14128;48.686;9.738;2022-12-07T14:30:20;10.40;;;7.20;;
315;SDS011;14128;48.686;9.738;2022-12-07T14:32:50;12.83;;;8.40;;
315;SDS011;14128;48.686;9.738;2022-12-07T14:35:19;11.20;;;7.20;;
315;SDS011;14128;48.686;9.738;2022-12-07T14:37:47;13.27;;;8.87;;
315;SDS011;14128;48.686;9.738;2022-12-07T14:40:15;15.57;;;10.47;;
315;SDS011;14128;48.686;9.738;2022-12-07T14:42:45;11.53;;;10.57;;
315;SDS011;14128;48.686;9.738;2022-12-07T14:47:42;10.60;;;8.73;;
315;SDS011;14128;48.686;9.738;2022-12-07T14:50:11;11.00;;;7.70;;
315;SDS011;14128;48.686;9.738;2022-12-07T14:52:39;9.47;;;7.60;;
315;SDS011;14128;48.686;9.738;2022-12-07T14:55:11;10.47;;;7.83;;
315;SDS011;14128;48.686;9.738;2022-12-07T14:57:40;14.10;;;11.23;;
315;SDS011;14128;48.686;9.738;2022-12-07T15:00:10;14.50;;;9.73;;
315;SDS011;14128;48.686;9.738;2022-12-07T15:02:40;13.07;;;10.40;;
315;SDS011;14128;48.686;9.738;2022-12-07T15:05:07;18.03;;;12.17;;
315;SDS011;14128;48.686;9.738;2022-12-07T15:07:34;13.40;;;9.40;;
315;SDS011;14128;48.686;9.738;2022-12-07T15:10:01;15.70;;;12.57;;
315;SDS011;14128;48.686;9.738;2022-12-07T15:12:29;10.60;;;8.47;;
315;SDS011;14128;48.686;9.738;2022-12-07T15:14:56;10.10;;;7.60;;
315;SDS011;14128;48.686;9.738;2022-12-07T15:17:24;11.00;;;8.30;;
315;SDS011;14128;48.686;9.738;2022-12-07T15:19:51;11.37;;;8.57;;
315;SDS011;14128;48.686;9.738;2022-12-07T15:22:17;11.97;;;9.93;;
315;SDS011;14128;48.686;9.738;2022-12-07T15:24:44;20.27;;;15.50;;
315;SDS011;14128;48.686;9.738;2022-12-07T15:27:11;30.67;;;23.47;;
315;SDS011;14128;48.686;9.738;2022-12-07T15:29:38;47.87;;;30.27;;
315;SDS011;14128;48.686;9.738;2022-12-07T15:32:05;21.47;;;14.57;;
315;SDS011;14128;48.686;9.738;2022-12-07T15:34:33;27.33;;;21.03;;
315;SDS011;14128;48.686;9.738;2022-12-07T15:36:59;12.23;;;10.67;;
315;SDS011;14128;48.686;9.738;2022-12-07T15:39:26;9.50;;;8.90;;
315;SDS011;14128;48.686;9.738;2022-12-07T15:41:53;16.93;;;12.50;;